Time;durP1;ratioP1;P1;durP2;ratioP2;P2;SDS_P1;SDS_P2;PMS_P1;PMS_P2;Temp;Humidity;BMP_temperature;BMP_pressure;BME280_temperature;BME280_humidity;BME280_pressure;Samples;Min_cycle;Max_cycle;Signal;HPM_P1;HPM_P2
2022/07/15 00:00:10;;;;;;;3.95;1.05;;;13.90;99.90;;;;;;5010358;28;20769;-81
2022/07/15 00:02:38;;;;;;;2.80;0.90;;;14.00;99.90;;;;;;4991748;28;20447;-81
2022/07/15 00:05:07;;;;;;;4.22;0.93;;;13.90;99.90;;;;;;4979427;28;20407;-81
2022/07/15 00:07:36;;;;;;;3.50;1.08;;;13.70;99.90;;;;;;5010035;28;20399;-81
2022/07/15 00:10:20;;;;;;;2.58;0.90;;;13.80;99.90;;;;;;5011120;28;20470;-80
2022/07/15 00:12:51;;;;;;;2.78;0.90;;;13.70;99.90;;;;;;5005365;28;20496;-82
2022/07/15 00:15:21;;;;;;;3.78;0.80;;;13.70;99.90;;;;;;5025502;28;20399;-81
2022/07/15 00:17:49;;;;;;;2.65;0.90;;;13.70;99.90;;;;;;5009291;28;20407;-81
2022/07/15 00:20:18;;;;;;;2.55;1.00;;;13.50;99.90;;;;;;5014295;28;20486;-82
2022/07/15 00:22:46;;;;;;;2.65;0.80;;;13.40;99.90;;;;;;5014148;28;20407;-80
2022/07/15 00:25:14;;;;;;;2.00;0.80;;;13.60;99.90;;;;;;5014715;28;20391;-81
2022/07/15 00:28:05;;;;;;;1.83;0.80;;;13.60;99.90;;;;;;5014646;28;20391;-81
2022/07/15 00:30:35;;;;;;;2.00;0.82;;;13.70;99.90;;;;;;5014548;28;20395;-80
2022/07/15 00:33:03;;;;;;;2.38;0.82;;;13.70;99.90;;;;;;5014458;28;20466;-80
2022/07/15 00:35:32;;;;;;;3.78;0.85;;;13.70;99.90;;;;;;4996968;28;20425;-81
2022/07/15 00:38:01;;;;;;;1.45;0.63;;;13.70;99.90;;;;;;4996862;28;20399;-81
2022/07/15 00:40:29;;;;;;;3.47;0.82;;;13.70;99.90;;;;;;4995640;28;20757;-80
2022/07/15 00:42:57;;;;;;;2.38;0.85;;;13.70;99.90;;;;;;4997102;28;20889;-82
2022/07/15 00:45:24;;;;;;;3.58;0.80;;;13.60;99.90;;;;;;5014386;28;20398;-80
2022/07/15 00:47:54;;;;;;;4.63;0.80;;;13.60;99.90;;;;;;5007876;28;20404;-82
2022/07/15 00:50:27;;;;;;;1.83;0.82;;;13.70;99.90;;;;;;5014285;28;20387;-81
2022/07/15 00:53:16;;;;;;;3.70;0.80;;;13.70;99.90;;;;;;5014114;28;20442;-81
2022/07/15 00:55:45;;;;;;;2.33;0.90;;;13.60;99.90;;;;;;5014134;28;20390;-81
2022/07/15 00:58:18;;;;;;;3.50;0.70;;;13.60;99.90;;;;;;5014097;28;20418;-81
2022/07/15 01:00:48;;;;;;;1.63;0.70;;;13.60;99.90;;;;;;5029543;28;20387;-81
2022/07/15 01:03:17;;;;;;;3.75;0.90;;;13.60;99.90;;;;;;5012459;28;20399;-81
2022/07/15 01:05:47;;;;;;;2.22;0.70;;;13.60;99.90;;;;;;5004284;28;20409;-81
2022/07/15 01:08:17;;;;;;;1.85;0.70;;;13.50;99.90;;;;;;5013890;28;20391;-81
2022/07/15 01:10:49;;;;;;;5.30;0.90;;;13.20;99.90;;;;;;5014031;28;20473;-81
2022/07/15 01:13:21;;;;;;;2.50;0.80;;;13.30;99.90;;;;;;5012362;28;20496;-81
2022/07/15 01:15:49;;;;;;;1.98;0.70;;;13.30;99.90;;;;;;5012161;28;20785;-80
2022/07/15 01:18:17;;;;;;;3.15;0.90;;;13.40;99.90;;;;;;5028957;28;20395;-81
2022/07/15 01:20:46;;;;;;;3.20;0.93;;;13.40;99.90;;;;;;5013399;28;20441;-81
2022/07/15 01:23:17;;;;;;;4.90;1.00;;;13.40;99.90;;;;;;4996026;28;20403;-81
2022/07/15 01:26:02;;;;;;;2.70;0.95;;;13.40;99.90;;;;;;5012280;28;20403;-80
2022/07/15 01:28:30;;;;;;;5.10;1.00;;;13.40;99.90;;;;;;5013820;28;20425;-81
2022/07/15 01:30:57;;;;;;;4.30;1.40;;;13.40;99.90;;;;;;4995719;28;20419;-81
2022/07/15 01:33:30;;;;;;;4.43;1.10;;;13.40;99.90;;;;;;4995647;28;20506;-81
2022/07/15 01:35:59;;;;;;;2.38;0.93;;;13.40;99.90;;;;;;4996130;28;20426;-81
2022/07/15 01:38:28;;;;;;;2.65;0.90;;;13.40;99.90;;;;;;4986838;28;20484;-81
2022/07/15 01:41:00;;;;;;;2.30;0.90;;;13.40;99.90;;;;;;5008823;28;20740;-80
2022/07/15 01:43:28;;;;;;;2.05;1.00;;;13.30;99.90;;;;;;5008881;28;20420;-81
2022/07/15 01:45:56;;;;;;;6.15;1.30;;;13.30;99.90;;;;;;5008845;28;20504;-81
2022/07/15 01:51:34;;;;;;;4.47;1.37;;;13.20;99.90;;;;;;5002057;28;20392;-80
2022/07/15 01:54:03;;;;;;;5.75;1.67;;;13.00;99.90;;;;;;5008460;28;20408;-81
2022/07/15 01:56:31;;;;;;;6.57;1.52;;;13.10;99.90;;;;;;4975905;28;20451;-81
2022/07/15 01:58:58;;;;;;;6.10;1.75;;;13.20;99.90;;;;;;5008393;28;20404;-81
2022/07/15 02:01:26;;;;;;;5.13;1.48;;;13.20;99.90;;;;;;4975769;28;20397;-81
2022/07/15 02:03:54;;;;;;;8.10;2.20;;;13.30;99.90;;;;;;4975993;28;20767;-81
2022/07/15 02:06:22;;;;;;;5.55;1.70;;;13.30;99.90;;;;;;5008241;28;20495;-81
2022/07/15 02:08:50;;;;;;;7.57;2.10;;;13.30;99.90;;;;;;4993105;28;20393;-82
2022/07/15 02:11:20;;;;;;;4.97;1.90;;;13.30;99.90;;;;;;4975652;28;20400;-81
2022/07/15 02:13:49;;;;;;;8.50;2.20;;;13.30;99.90;;;;;;4992840;28;20431;-81
2022/07/15 02:16:18;;;;;;;7.10;2.00;;;13.30;99.90;;;;;;4975539;28;20937;-80
2022/07/15 02:18:46;;;;;;;8.17;1.73;;;13.40;99.90;;;;;;5007932;28;20397;-81
2022/07/15 02:21:13;;;;;;;9.95;2.40;;;13.40;99.90;;;;;;4992718;28;20432;-81
2022/07/15 02:23:41;;;;;;;8.82;2.38;;;13.20;99.90;;;;;;4975483;28;20460;-81
2022/07/15 02:26:09;;;;;;;8.60;2.17;;;12.90;99.90;;;;;;4975334;28;20403;-79
2022/07/15 02:28:38;;;;;;;9.07;2.40;;;13.00;99.90;;;;;;4991464;28;20577;-80
2022/07/15 02:31:05;;;;;;;6.50;2.58;;;13.00;99.90;;;;;;4975230;28;20396;-81
2022/07/15 02:33:36;;;;;;;11.48;3.00;;;13.10;99.90;;;;;;4975116;28;20484;-81
2022/07/15 02:36:09;;;;;;;10.43;2.90;;;13.10;99.90;;;;;;5007010;28;20397;-80
2022/07/15 02:38:37;;;;;;;13.13;3.97;;;13.00;99.90;;;;;;4991266;28;20401;-80
2022/07/15 02:41:07;;;;;;;9.10;2.97;;;13.00;99.90;;;;;;4974476;28;20393;-81
2022/07/15 02:43:36;;;;;;;11.60;3.10;;;12.90;99.90;;;;;;4991428;28;20485;-81
2022/07/15 02:46:05;;;;;;;13.00;3.53;;;12.80;99.90;;;;;;5007453;28;20902;-81
2022/07/15 02:48:33;;;;;;;11.68;3.58;;;12.90;99.90;;;;;;4991109;28;20400;-80
2022/07/15 02:51:02;;;;;;;10.98;3.55;;;13.00;99.90;;;;;;4974983;28;20436;-81
2022/07/15 02:53:30;;;;;;;10.50;3.40;;;13.00;99.90;;;;;;4975053;28;20405;-79
2022/07/15 02:56:03;;;;;;;11.48;3.75;;;12.80;99.90;;;;;;4974902;28;20437;-80
2022/07/15 02:58:32;;;;;;;9.57;3.05;;;12.90;99.90;;;;;;5007363;28;20405;-81
2022/07/15 03:01:00;;;;;;;11.13;3.80;;;12.90;99.90;;;;;;4998590;28;20384;-81
2022/07/15 03:03:31;;;;;;;14.65;4.38;;;13.00;99.90;;;;;;5010702;28;20416;-81
2022/07/15 03:06:00;;;;;;;14.13;4.38;;;13.00;99.90;;;;;;4994238;28;20429;-81
2022/07/15 03:08:28;;;;;;;8.67;3.33;;;13.10;99.90;;;;;;4993367;28;20407;-79
2022/07/15 03:10:56;;;;;;;11.65;4.00;;;12.70;99.90;;;;;;5026694;28;20761;-80
2022/07/15 03:13:25;;;;;;;12.35;3.35;;;12.80;99.90;;;;;;4994379;28;20411;-81
2022/07/15 03:15:53;;;;;;;12.32;3.80;;;12.80;99.90;;;;;;4993985;28;20403;-80
2022/07/15 03:18:23;;;;;;;11.20;4.03;;;12.90;99.90;;;;;;5026890;28;20406;-81
2022/07/15 03:20:50;;;;;;;12.25;4.38;;;13.00;99.90;;;;;;4994152;28;20445;-81
2022/07/15 03:23:18;;;;;;;10.27;4.10;;;12.90;99.90;;;;;;5026849;28;20431;-81
2022/07/15 03:25:48;;;;;;;13.85;3.60;;;12.80;99.90;;;;;;5009899;28;20410;-79
2022/07/15 03:28:19;;;;;;;10.32;3.80;;;12.80;99.90;;;;;;5011582;28;20391;-80
2022/07/15 03:30:48;;;;;;;12.27;4.40;;;12.80;99.90;;;;;;5010364;28;20470;-81
2022/07/15 03:33:16;;;;;;;13.30;4.05;;;12.80;99.90;;;;;;5026867;28;20409;-81
2022/07/15 03:35:45;;;;;;;13.50;5.05;;;12.80;99.90;;;;;;5026626;28;20402;-80
2022/07/15 03:38:13;;;;;;;12.05;4.32;;;12.80;99.90;;;;;;5026517;28;20401;-79
2022/07/15 03:40:41;;;;;;;12.68;4.57;;;12.90;99.90;;;;;;5026601;28;20419;-79
2022/07/15 03:43:09;;;;;;;12.70;4.55;;;12.80;99.90;;;;;;5011397;28;20391;-81
2022/07/15 03:45:37;;;;;;;11.70;4.85;;;12.80;99.90;;;;;;5010254;28;20765;-81
2022/07/15 03:48:05;;;;;;;10.20;4.45;;;12.90;99.90;;;;;;5010097;28;20410;-81
2022/07/15 03:50:35;;;;;;;11.48;4.72;;;13.00;99.90;;;;;;5010069;28;20414;-80
2022/07/15 03:53:03;;;;;;;13.82;5.30;;;13.10;99.90;;;;;;5028070;28;20494;-80
2022/07/15 03:55:31;;;;;;;14.37;5.33;;;13.00;99.90;;;;;;5015287;28;20383;-81
2022/07/15 03:57:58;;;;;;;10.63;3.95;;;13.10;99.90;;;;;;5015141;28;20390;-81
2022/07/15 04:00:26;;;;;;;12.73;4.88;;;13.00;99.90;;;;;;5028605;28;20921;-81
2022/07/15 04:02:56;;;;;;;15.55;5.50;;;12.90;99.90;;;;;;4992237;28;20430;-81
2022/07/15 04:05:24;;;;;;;8.88;4.20;;;13.00;99.90;;;;;;5009603;28;20387;-80
2022/07/15 04:07:52;;;;;;;12.07;5.32;;;12.80;99.90;;;;;;4997564;28;20393;-81
2022/07/15 04:10:20;;;;;;;13.30;4.63;;;12.80;99.90;;;;;;4997455;28;20406;-80
2022/07/15 04:12:48;;;;;;;13.10;5.20;;;12.80;99.90;;;;;;5013492;28;20397;-80
2022/07/15 04:15:15;;;;;;;10.40;4.63;;;12.80;99.90;;;;;;4997482;28;20399;-79
2022/07/15 04:17:45;;;;;;;13.60;5.57;;;12.80;99.90;;;;;;4997202;28;20739;-79
2022/07/15 04:20:18;;;;;;;12.40;4.90;;;12.80;99.90;;;;;;5015169;28;20398;-81
2022/07/15 04:22:47;;;;;;;12.07;4.90;;;12.90;99.90;;;;;;4993566;28;20922;-81
2022/07/15 04:25:17;;;;;;;8.80;4.82;;;12.90;99.90;;;;;;4993784;28;20616;-79
2022/07/15 04:27:47;;;;;;;12.07;4.85;;;12.90;99.90;;;;;;4994136;28;20401;-78
2022/07/15 04:30:17;;;;;;;10.02;4.75;;;12.90;99.90;;;;;;4993750;28;20409;-80
2022/07/15 04:32:48;;;;;;;13.60;5.32;;;12.80;99.90;;;;;;5009983;28;20400;-79
2022/07/15 04:35:17;;;;;;;12.18;5.03;;;12.80;99.90;;;;;;4993781;28;20838;-80
2022/07/15 04:37:50;;;;;;;12.00;4.93;;;12.90;99.90;;;;;;4978401;28;20755;-80
2022/07/15 04:40:18;;;;;;;9.88;4.18;;;12.90;99.90;;;;;;4991163;28;20417;-79
2022/07/15 04:42:46;;;;;;;10.80;5.35;;;12.90;99.90;;;;;;5009643;28;20463;-80
2022/07/15 04:45:14;;;;;;;9.27;4.63;;;12.90;99.90;;;;;;4993547;28;20488;-80
2022/07/15 04:47:42;;;;;;;10.93;5.18;;;13.00;99.90;;;;;;4993467;28;20396;-81
2022/07/15 04:53:00;;;;;;;13.23;5.28;;;12.80;99.90;;;;;;4993312;28;20403;-80
2022/07/15 04:55:28;;;;;;;11.57;4.93;;;12.80;99.90;;;;;;4994579;28;20385;-79
2022/07/15 04:58:01;;;;;;;12.15;4.90;;;12.80;99.90;;;;;;4993341;28;20397;-80
2022/07/15 05:00:29;;;;;;;11.02;3.92;;;12.90;99.90;;;;;;4994371;28;20973;-79
2022/07/15 05:02:57;;;;;;;7.25;3.85;;;12.80;99.90;;;;;;4993270;28;20895;-81
2022/07/15 05:05:27;;;;;;;11.68;3.50;;;12.90;99.90;;;;;;4992424;28;20405;-80
2022/07/15 05:07:56;;;;;;;8.40;3.90;;;12.90;99.90;;;;;;4985308;28;20405;-81
2022/07/15 05:10:24;;;;;;;8.15;3.47;;;13.00;99.90;;;;;;4990344;28;20385;-82
2022/07/15 05:12:58;;;;;;;8.90;3.53;;;13.00;99.90;;;;;;4990899;28;20409;-80
2022/07/15 05:15:25;;;;;;;11.07;3.83;;;13.10;99.90;;;;;;4994153;28;20412;-82
2022/07/15 05:17:53;;;;;;;10.23;3.63;;;13.10;99.90;;;;;;5009190;28;20403;-81
2022/07/15 05:20:22;;;;;;;11.25;3.63;;;13.10;99.90;;;;;;5009273;28;20428;-82
2022/07/15 05:22:51;;;;;;;12.38;3.42;;;13.00;99.90;;;;;;5009060;28;20493;-80
2022/07/15 05:25:19;;;;;;;10.38;3.42;;;13.10;99.90;;;;;;4997893;28;20446;-82
2022/07/15 05:27:47;;;;;;;7.45;3.05;;;13.00;99.90;;;;;;4988264;28;20426;-82
2022/07/15 05:30:16;;;;;;;10.10;3.30;;;13.00;99.90;;;;;;4988427;28;20410;-82
2022/07/15 05:32:44;;;;;;;11.10;3.83;;;12.90;99.90;;;;;;4989269;28;20407;-80
2022/07/15 05:35:18;;;;;;;12.75;3.60;;;12.90;99.90;;;;;;4989199;28;20403;-81
2022/07/15 05:37:46;;;;;;;9.35;3.30;;;13.00;99.90;;;;;;4974682;28;20880;-82
2022/07/15 05:40:21;;;;;;;6.60;3.53;;;13.00;99.90;;;;;;4989292;28;20754;-81
2022/07/15 05:42:53;;;;;;;6.50;3.08;;;13.10;99.90;;;;;;5004060;28;20412;-82
2022/07/15 05:45:21;;;;;;;8.77;3.53;;;13.20;99.90;;;;;;4992141;28;20926;-81
2022/07/15 05:48:00;;;;;;;11.07;3.90;;;13.20;99.90;;;;;;4992422;28;20887;-82
2022/07/15 05:50:31;;;;;;;11.43;3.78;;;13.20;99.90;;;;;;4992276;28;20768;-80
2022/07/15 05:53:00;;;;;;;9.38;3.92;;;13.30;99.90;;;;;;5008512;28;20883;-81
2022/07/15 05:55:28;;;;;;;10.20;3.80;;;13.40;99.90;;;;;;4992015;28;20845;-81
2022/07/15 05:57:57;;;;;;;8.10;3.75;;;13.40;99.90;;;;;;4991983;28;20416;-80
2022/07/15 06:00:28;;;;;;;7.15;3.97;;;13.40;99.90;;;;;;4992193;28;20409;-81
2022/07/15 06:02:56;;;;;;;8.23;4.22;;;13.40;99.90;;;;;;4991858;28;20405;-81
2022/07/15 06:05:26;;;;;;;8.13;4.20;;;13.40;99.90;;;;;;4992154;28;20417;-81
2022/07/15 06:07:57;;;;;;;9.03;3.97;;;13.50;99.90;;;;;;5008429;28;20397;-80
2022/07/15 06:10:38;;;;;;;10.27;3.78;;;13.50;99.90;;;;;;5008436;28;20463;-81
2022/07/15 06:13:06;;;;;;;9.70;4.30;;;13.50;99.90;;;;;;4993034;28;20492;-81
2022/07/15 06:15:33;;;;;;;9.45;3.63;;;13.50;99.90;;;;;;4991409;28;20440;-81
2022/07/15 06:18:03;;;;;;;7.57;3.43;;;13.60;99.90;;;;;;5007616;28;20401;-80
2022/07/15 06:20:31;;;;;;;9.43;3.60;;;13.60;99.90;;;;;;4991705;28;20405;-81
2022/07/15 06:23:00;;;;;;;9.20;4.28;;;13.60;99.90;;;;;;4991610;28;20895;-81
2022/07/15 06:25:27;;;;;;;6.65;3.53;;;13.60;99.90;;;;;;4991574;28;20400;-81
2022/07/15 06:27:55;;;;;;;8.98;3.30;;;13.80;99.90;;;;;;4991519;28;20461;-80
2022/07/15 06:30:22;;;;;;;7.03;3.00;;;13.80;99.90;;;;;;4991681;28;20767;-82
2022/07/15 06:32:50;;;;;;;8.00;2.90;;;13.80;99.90;;;;;;4975487;28;20408;-83
2022/07/15 06:35:19;;;;;;;8.17;3.20;;;13.80;99.90;;;;;;4991461;28;20463;-82
2022/07/15 06:37:47;;;;;;;6.63;2.53;;;13.80;99.90;;;;;;4992672;28;20393;-82
2022/07/15 06:40:15;;;;;;;6.53;2.22;;;13.90;99.90;;;;;;4975475;28;20389;-81
2022/07/15 06:42:43;;;;;;;8.18;2.80;;;13.90;99.90;;;;;;4991261;28;20770;-81
2022/07/15 06:45:15;;;;;;;9.33;2.70;;;13.90;99.90;;;;;;4991353;28;20467;-82
2022/07/15 06:47:43;;;;;;;11.07;2.93;;;13.90;99.90;;;;;;4992431;28;20427;-81
2022/07/15 06:50:12;;;;;;;8.25;2.78;;;13.90;99.90;;;;;;4990246;28;20775;-81
2022/07/15 06:52:41;;;;;;;7.15;2.45;;;13.90;99.90;;;;;;5003752;28;20762;-80
2022/07/15 06:55:11;;;;;;;6.47;2.50;;;14.00;99.90;;;;;;4990996;28;20408;-80
2022/07/15 06:57:40;;;;;;;10.52;3.00;;;14.00;99.90;;;;;;4991011;28;20397;-81
2022/07/15 07:00:11;;;;;;;7.07;2.30;;;14.10;99.90;;;;;;4991290;28;20403;-82
2022/07/15 07:02:40;;;;;;;7.47;2.10;;;14.30;99.90;;;;;;4991060;28;20399;-81
2022/07/15 07:05:17;;;;;;;7.75;2.17;;;14.20;99.90;;;;;;4991482;28;20815;-82
2022/07/15 07:07:45;;;;;;;5.13;1.90;;;14.20;99.90;;;;;;4988295;28;20626;-81
2022/07/15 07:10:13;;;;;;;5.03;1.90;;;14.20;99.90;;;;;;4987673;28;20402;-82
2022/07/15 07:12:41;;;;;;;5.97;1.95;;;14.20;99.90;;;;;;5004011;28;20825;-82
2022/07/15 07:15:09;;;;;;;6.43;1.90;;;14.30;99.90;;;;;;4972641;28;20433;-82
2022/07/15 07:17:37;;;;;;;9.13;2.22;;;14.20;99.90;;;;;;4972052;28;20655;-81
2022/07/15 07:20:05;;;;;;;5.75;1.75;;;14.30;99.90;;;;;;4971758;28;20426;-80
2022/07/15 07:22:33;;;;;;;7.03;1.90;;;14.30;99.90;;;;;;4987370;28;20414;-83
2022/07/15 07:25:00;;;;;;;6.30;1.45;;;14.40;99.90;;;;;;4987738;28;20402;-81
2022/07/15 07:27:28;;;;;;;4.28;1.73;;;14.40;99.90;;;;;;4972180;28;20923;-82
2022/07/15 07:29:55;;;;;;;8.13;1.40;;;14.50;99.90;;;;;;4972558;28;20417;-82
2022/07/15 07:32:23;;;;;;;7.68;1.40;;;14.50;99.90;;;;;;4972630;28;20394;-81
2022/07/15 07:34:51;;;;;;;5.90;1.67;;;14.60;99.90;;;;;;4987531;28;20407;-82
2022/07/15 07:37:19;;;;;;;5.65;1.20;;;14.50;99.90;;;;;;4987426;28;20889;-81
2022/07/15 07:39:46;;;;;;;3.70;1.10;;;14.60;99.90;;;;;;4987445;28;20397;-82
2022/07/15 07:42:14;;;;;;;6.13;1.38;;;14.70;99.90;;;;;;5003823;28;20394;-82
2022/07/15 07:44:42;;;;;;;3.97;1.07;;;15.00;99.90;;;;;;4972693;28;20391;-82
2022/07/15 07:47:10;;;;;;;4.80;0.98;;;15.00;99.90;;;;;;4972444;28;20757;-82
2022/07/15 07:49:41;;;;;;;4.60;1.20;;;15.10;99.90;;;;;;4972404;28;20405;-83
2022/07/15 07:52:08;;;;;;;7.20;1.30;;;15.20;99.90;;;;;;4990445;28;20938;-83
2022/07/15 07:54:36;;;;;;;4.82;1.10;;;15.20;99.90;;;;;;4991764;28;20883;-82
2022/07/15 07:57:04;;;;;;;4.18;1.00;;;15.20;99.90;;;;;;4990651;28;20863;-83
2022/07/15 07:59:33;;;;;;;6.88;1.10;;;15.20;99.90;;;;;;4990486;28;20477;-82
2022/07/15 08:02:01;;;;;;;4.90;1.10;;;15.20;99.90;;;;;;4991694;28;20396;-82
2022/07/15 08:04:29;;;;;;;3.10;0.93;;;15.20;99.90;;;;;;4991807;28;20407;-83
2022/07/15 08:06:57;;;;;;;3.42;1.00;;;15.30;99.90;;;;;;4991718;28;20605;-83
2022/07/15 08:09:25;;;;;;;4.33;1.10;;;15.40;99.90;;;;;;4991746;28;20421;-82
2022/07/15 08:11:53;;;;;;;4.00;1.27;;;15.30;99.90;;;;;;4991677;28;20420;-82
2022/07/15 08:14:20;;;;;;;4.30;1.10;;;15.20;99.90;;;;;;5006697;28;20404;-82
2022/07/15 08:16:48;;;;;;;4.43;1.00;;;15.20;99.90;;;;;;4990571;28;20440;-82
2022/07/15 08:19:16;;;;;;;4.15;0.95;;;15.30;99.90;;;;;;4990537;28;20468;-82
2022/07/15 08:21:45;;;;;;;3.03;1.00;;;15.40;99.90;;;;;;5000269;28;20745;-83
2022/07/15 08:24:12;;;;;;;4.32;1.10;;;15.40;99.90;;;;;;4993564;28;20395;-82
2022/07/15 08:26:40;;;;;;;2.00;0.80;;;15.40;99.90;;;;;;4993933;28;20387;-82
2022/07/15 08:29:08;;;;;;;3.58;1.17;;;15.50;99.90;;;;;;4994037;28;20465;-82
2022/07/15 08:31:36;;;;;;;3.47;0.95;;;15.70;99.90;;;;;;5011035;28;20402;-82
2022/07/15 08:34:07;;;;;;;4.57;1.02;;;15.80;99.90;;;;;;4993919;28;20739;-83
2022/07/15 08:36:35;;;;;;;4.88;0.98;;;15.80;99.90;;;;;;5010976;28;20441;-82
2022/07/15 08:39:03;;;;;;;3.97;1.13;;;15.70;99.90;;;;;;5010973;28;20391;-82
2022/07/15 08:41:36;;;;;;;3.80;0.90;;;15.70;99.90;;;;;;5013150;28;20767;-84
2022/07/15 08:44:04;;;;;;;5.18;1.10;;;15.60;99.90;;;;;;5014359;28;20491;-82
2022/07/15 08:46:34;;;;;;;5.07;1.05;;;15.60;99.90;;;;;;5014357;28;20853;-83
2022/07/15 08:49:08;;;;;;;4.50;0.93;;;15.60;99.90;;;;;;5014528;28;20474;-82
2022/07/15 08:51:38;;;;;;;5.57;0.95;;;15.70;99.90;;;;;;5014056;28;20745;-82
2022/07/15 08:54:06;;;;;;;4.83;0.90;;;15.90;99.90;;;;;;4996838;28;20490;-82
2022/07/15 08:56:35;;;;;;;4.75;1.08;;;15.90;99.90;;;;;;4996620;28;20391;-81
2022/07/15 08:59:04;;;;;;;3.50;0.95;;;15.90;99.90;;;;;;5014205;28;20449;-83
2022/07/15 09:01:34;;;;;;;6.15;0.88;;;16.10;99.90;;;;;;5013843;28;20383;-81
2022/07/15 09:04:02;;;;;;;4.57;1.00;;;15.90;99.90;;;;;;4996552;28;20404;-83
2022/07/15 09:06:38;;;;;;;4.30;1.00;;;16.00;99.90;;;;;;4996353;28;20425;-82
2022/07/15 09:09:32;;;;;;;3.50;0.70;;;16.20;99.90;;;;;;5013784;28;20473;-82
2022/07/15 09:12:03;;;;;;;4.40;0.90;;;16.40;99.90;;;;;;5013855;28;20741;-82
2022/07/15 09:14:42;;;;;;;6.32;0.80;;;16.40;99.90;;;;;;5013730;28;20414;-81
2022/07/15 09:17:10;;;;;;;4.03;0.90;;;16.30;99.90;;;;;;4994980;28;20399;-82
2022/07/15 09:20:01;;;;;;;2.95;0.75;;;16.20;99.90;;;;;;4996389;28;20877;-81
2022/07/15 09:22:32;;;;;;;3.90;0.80;;;16.20;99.90;;;;;;5013750;28;20481;-82
2022/07/15 09:25:11;;;;;;;3.00;0.80;;;16.10;99.90;;;;;;5013565;28;20885;-81
2022/07/15 09:27:41;;;;;;;4.85;0.70;;;16.10;99.90;;;;;;4996255;28;20391;-81
2022/07/15 09:36:09;;;;;;;4.83;0.80;;;16.30;99.90;;;;;;5013414;28;20407;-82
2022/07/15 09:38:55;;;;;;;3.70;0.70;;;16.20;99.90;;;;;;4995954;28;20383;-82
2022/07/15 09:41:39;;;;;;;4.45;0.70;;;16.00;99.90;;;;;;5013695;28;20387;-82
2022/07/15 09:44:12;;;;;;;2.40;0.65;;;16.00;99.90;;;;;;5013460;28;20419;-82
2022/07/15 09:46:47;;;;;;;4.80;0.90;;;16.00;99.90;;;;;;5013319;28;20387;-82
2022/07/15 09:49:34;;;;;;;3.70;0.90;;;16.00;99.90;;;;;;5013334;28;20425;-81
2022/07/15 09:52:09;;;;;;;4.90;0.90;;;16.00;99.90;;;;;;5012880;28;20401;-82
2022/07/15 09:54:40;;;;;;;5.22;0.80;;;16.00;99.90;;;;;;5013062;28;20498;-81
2022/07/15 09:57:11;;;;;;;3.03;0.70;;;15.90;99.90;;;;;;5013055;28;20467;-82
2022/07/15 09:59:39;;;;;;;4.40;0.90;;;15.80;99.90;;;;;;5012998;28;20470;-81
2022/07/15 10:02:09;;;;;;;5.38;1.02;;;15.60;99.90;;;;;;5012654;28;20405;-82
2022/07/15 10:04:37;;;;;;;3.53;0.80;;;15.40;99.90;;;;;;5012874;28;20482;-82
2022/07/15 10:07:06;;;;;;;4.60;0.80;;;15.30;99.90;;;;;;5012917;28;20395;-83
2022/07/15 10:09:54;;;;;;;2.67;0.80;;;15.20;99.90;;;;;;5012459;28;20391;-82
2022/07/15 10:12:39;;;;;;;2.60;0.70;;;15.10;99.90;;;;;;5009946;28;20391;-82
2022/07/15 10:15:35;;;;;;;4.25;0.80;;;15.00;99.90;;;;;;4995042;28;20478;-83
2022/07/15 10:18:30;;;;;;;3.35;0.80;;;15.10;99.90;;;;;;5012445;28;20391;-82
2022/07/15 10:21:07;;;;;;;4.87;0.90;;;15.10;99.90;;;;;;4995120;28;20399;-82
2022/07/15 10:23:54;;;;;;;1.65;0.70;;;15.30;99.90;;;;;;4994944;28;20395;-82
2022/07/15 10:26:48;;;;;;;4.05;0.93;;;15.30;99.90;;;;;;4994846;28;20391;-83
2022/07/15 10:29:16;;;;;;;3.90;0.80;;;15.50;99.90;;;;;;5027683;28;20443;-82
2022/07/15 10:31:44;;;;;;;6.55;1.00;;;15.80;99.90;;;;;;5012602;28;20395;-82
2022/07/15 10:34:12;;;;;;;2.83;0.70;;;16.00;99.90;;;;;;4991967;28;20407;-83
2022/07/15 10:36:45;;;;;;;2.67;0.80;;;16.10;99.90;;;;;;5010031;28;20437;-82
2022/07/15 10:39:14;;;;;;;6.60;0.75;;;16.30;99.90;;;;;;5011086;28;20498;-82
2022/07/15 10:42:04;;;;;;;2.95;0.90;;;16.50;99.90;;;;;;4993091;28;20383;-82
2022/07/15 10:44:47;;;;;;;5.15;0.90;;;16.30;99.90;;;;;;5010990;28;20392;-83
2022/07/15 10:47:15;;;;;;;4.68;0.80;;;16.20;99.90;;;;;;5011117;28;20391;-82
2022/07/15 10:49:44;;;;;;;3.78;0.90;;;16.40;99.90;;;;;;4989188;28;20400;-82
2022/07/15 10:52:31;;;;;;;3.65;0.80;;;16.30;99.90;;;;;;5006472;28;20403;-82
2022/07/15 10:55:05;;;;;;;4.05;0.88;;;16.10;99.90;;;;;;4996194;28;20495;-82
2022/07/15 10:57:39;;;;;;;4.33;0.90;;;16.00;99.90;;;;;;5012019;28;20486;-82
2022/07/15 11:00:29;;;;;;;4.03;0.68;;;16.10;99.90;;;;;;5012058;28;21019;-82
2022/07/15 11:03:06;;;;;;;3.95;0.73;;;16.10;99.90;;;;;;4977956;28;20449;-81
2022/07/15 11:05:56;;;;;;;3.08;0.73;;;15.90;99.90;;;;;;5012270;28;20425;-83
2022/07/15 11:08:36;;;;;;;6.00;1.00;;;15.80;99.90;;;;;;5003280;28;20494;-83
2022/07/15 11:11:16;;;;;;;3.10;0.73;;;16.00;99.90;;;;;;5012127;28;20395;-82
2022/07/15 11:13:50;;;;;;;3.22;0.60;;;16.20;99.90;;;;;;4994212;28;20410;-82
2022/07/15 11:16:20;;;;;;;2.40;0.50;;;16.30;99.90;;;;;;5011830;28;20403;-81
2022/07/15 11:18:57;;;;;;;3.28;0.60;;;16.20;99.90;;;;;;5011750;28;20391;-81
2022/07/15 11:21:27;;;;;;;2.85;0.55;;;16.20;99.90;;;;;;4990255;28;20416;-82
2022/07/15 11:23:59;;;;;;;2.72;0.50;;;16.20;99.90;;;;;;4984537;28;20434;-82
2022/07/15 11:26:46;;;;;;;2.75;0.60;;;16.10;99.90;;;;;;4972740;28;20433;-82
2022/07/15 11:29:14;;;;;;;1.02;0.52;;;16.10;99.90;;;;;;5003917;28;20402;-83
2022/07/15 11:31:43;;;;;;;5.07;0.52;;;16.30;99.90;;;;;;4972594;28;20485;-82
2022/07/15 11:34:11;;;;;;;3.15;0.50;;;16.30;99.90;;;;;;4972669;28;20403;-83
2022/07/15 11:36:39;;;;;;;1.27;0.50;;;16.40;99.90;;;;;;4971222;28;20969;-83
2022/07/15 11:39:06;;;;;;;3.45;0.82;;;16.30;99.90;;;;;;4972679;28;20402;-83
2022/07/15 11:44:29;;;;;;;1.25;0.50;;;16.60;99.90;;;;;;4972499;28;20814;-83
2022/07/15 11:46:58;;;;;;;1.73;0.57;;;16.70;99.90;;;;;;4987373;28;20465;-83
2022/07/15 11:49:31;;;;;;;2.13;0.57;;;16.70;99.90;;;;;;4987622;28;20426;-83
2022/07/15 11:52:00;;;;;;;2.13;0.50;;;16.80;99.90;;;;;;4971183;28;20418;-82
2022/07/15 11:54:28;;;;;;;2.67;0.50;;;17.00;99.90;;;;;;4983435;28;20404;-83
2022/07/15 11:56:58;;;;;;;2.60;0.80;;;17.00;99.90;;;;;;4991768;28;20415;-81
2022/07/15 11:59:26;;;;;;;2.35;0.60;;;17.00;99.90;;;;;;4991919;28;20389;-82
2022/07/15 12:02:04;;;;;;;2.63;0.50;;;17.00;99.90;;;;;;4977931;28;20398;-82
2022/07/15 12:04:33;;;;;;;1.58;0.45;;;17.10;99.90;;;;;;4990486;28;20392;-83
2022/07/15 12:07:01;;;;;;;1.77;0.50;;;17.20;99.90;;;;;;4991753;28;20820;-83
2022/07/15 12:09:44;;;;;;;3.97;0.70;;;17.40;99.90;;;;;;4991759;28;20392;-82
2022/07/15 12:12:12;;;;;;;1.95;0.60;;;17.50;99.90;;;;;;4991903;28;20476;-83
2022/07/15 12:14:40;;;;;;;2.83;0.60;;;17.40;99.90;;;;;;4994241;28;20435;-81
2022/07/15 12:17:09;;;;;;;1.23;0.50;;;17.50;99.90;;;;;;4995323;28;20408;-82
2022/07/15 12:19:37;;;;;;;3.22;0.55;;;17.40;99.90;;;;;;4995348;28;20602;-82
2022/07/15 12:22:09;;;;;;;4.20;0.50;;;17.30;99.90;;;;;;5004479;28;20856;-83
2022/07/15 12:24:45;;;;;;;3.95;0.65;;;17.10;99.90;;;;;;5014307;28;20394;-81
2022/07/15 12:27:14;;;;;;;2.10;0.70;;;16.80;99.90;;;;;;5013579;28;20453;-81
2022/07/15 12:29:43;;;;;;;2.88;0.70;;;16.70;99.90;;;;;;5014732;28;20402;-81
2022/07/15 12:32:31;;;;;;;2.20;0.60;;;16.80;99.90;;;;;;5013655;28;20888;-82
2022/07/15 12:35:04;;;;;;;2.05;0.50;;;17.10;99.90;;;;;;5011220;28;20748;-83
2022/07/15 12:37:35;;;;;;;2.28;0.60;;;17.40;99.90;;;;;;5011082;28;20486;-83
2022/07/15 12:40:07;;;;;;;2.22;0.50;;;17.30;99.90;;;;;;5028027;28;20734;-82
2022/07/15 12:42:49;;;;;;;1.42;0.50;;;17.30;99.90;;;;;;5007731;28;20399;-82
2022/07/15 12:45:26;;;;;;;3.33;0.60;;;17.40;99.90;;;;;;4999277;28;20403;-81
2022/07/15 12:48:01;;;;;;;1.07;0.40;;;17.60;99.90;;;;;;5007560;28;20546;-82
2022/07/15 12:50:31;;;;;;;3.17;0.77;;;17.40;99.90;;;;;;4988776;28;20491;-82
2022/07/15 12:53:00;;;;;;;2.95;0.70;;;17.40;99.90;;;;;;5009016;28;20482;-82
2022/07/15 12:55:30;;;;;;;2.00;0.60;;;17.60;99.90;;;;;;4996668;28;20927;-81
2022/07/15 12:58:09;;;;;;;2.35;0.60;;;17.50;99.90;;;;;;5029477;28;20400;-81
2022/07/15 13:00:38;;;;;;;5.20;0.50;;;17.60;99.90;;;;;;5029497;28;20395;-83
2022/07/15 13:03:18;;;;;;;2.17;0.50;;;17.50;99.90;;;;;;4994588;28;20461;-83
2022/07/15 13:05:55;;;;;;;2.22;0.50;;;17.30;99.90;;;;;;4989215;28;20482;-82
2022/07/15 13:08:26;;;;;;;2.67;0.77;;;17.10;99.90;;;;;;5013865;28;20509;-83
2022/07/15 13:10:57;;;;;;;3.50;0.60;;;17.00;99.90;;;;;;5013936;28;20387;-83
2022/07/15 13:13:28;;;;;;;1.20;0.40;;;17.00;99.90;;;;;;5013912;28;20931;-82
2022/07/15 13:15:56;;;;;;;1.97;0.60;;;17.00;99.90;;;;;;5013776;28;20430;-82
2022/07/15 13:18:25;;;;;;;2.38;0.75;;;16.80;99.90;;;;;;4996124;28;20403;-81